sensor_id;sensor_type;location;lat;lon;timestamp;P1;durP1;ratioP1;P2;durP2;ratioP2
16387;SDS011;8303;53.446;9.988;2023-03-30T04:47:52;29.50;;;17.60;;
16387;SDS011;8303;53.446;9.988;2023-03-30T04:50:22;32.83;;;17.87;;
16387;SDS011;8303;53.446;9.988;2023-03-30T04:52:49;23.23;;;16.60;;
16387;SDS011;8303;53.446;9.988;2023-03-30T04:55:16;26.40;;;16.87;;
16387;SDS011;8303;53.446;9.988;2023-03-30T05:00:22;26.47;;;16.10;;
16387;SDS011;8303;53.446;9.988;2023-03-30T05:02:52;26.60;;;17.13;;
16387;SDS011;8303;53.446;9.988;2023-03-30T05:05:19;25.60;;;14.40;;
16387;SDS011;8303;53.446;9.988;2023-03-30T05:07:46;26.00;;;16.20;;
16387;SDS011;8303;53.446;9.988;2023-03-30T05:10:13;23.90;;;15.67;;
16387;SDS011;8303;53.446;9.988;2023-03-30T05:12:40;26.93;;;16.67;;
16387;SDS011;8303;53.446;9.988;2023-03-30T05:15:07;26.73;;;16.70;;
16387;SDS011;8303;53.446;9.988;2023-03-30T05:17:35;23.37;;;15.83;;
16387;SDS011;8303;53.446;9.988;2023-03-30T05:20:06;28.27;;;16.50;;
16387;SDS011;8303;53.446;9.988;2023-03-30T05:22:34;23.40;;;16.13;;
16387;SDS011;8303;53.446;9.988;2023-03-30T05:25:01;22.10;;;15.27;;
16387;SDS011;8303;53.446;9.988;2023-03-30T05:27:28;21.90;;;14.80;;
16387;SDS011;8303;53.446;9.988;2023-03-30T05:29:55;18.73;;;14.03;;
16387;SDS011;8303;53.446;9.988;2023-03-30T05:32:22;24.17;;;15.70;;
16387;SDS011;8303;53.446;9.988;2023-03-30T05:34:49;21.50;;;14.20;;
16387;SDS011;8303;53.446;9.988;2023-03-30T05:37:17;20.03;;;13.70;;
16387;SDS011;8303;53.446;9.988;2023-03-30T05:39:44;22.37;;;14.70;;
16387;SDS011;8303;53.446;9.988;2023-03-30T05:42:12;22.60;;;13.20;;
16387;SDS011;8303;53.446;9.988;2023-03-30T05:44:39;17.13;;;12.77;;
16387;SDS011;8303;53.446;9.988;2023-03-30T05:47:05;16.63;;;12.63;;
16387;SDS011;8303;53.446;9.988;2023-03-30T05:49:32;18.40;;;11.70;;
16387;SDS011;8303;53.446;9.988;2023-03-30T05:51:59;17.80;;;13.07;;
16387;SDS011;8303;53.446;9.988;2023-03-30T05:54:27;18.00;;;12.57;;
16387;SDS011;8303;53.446;9.988;2023-03-30T05:56:54;17.97;;;12.37;;
16387;SDS011;8303;53.446;9.988;2023-03-30T05:59:21;19.60;;;13.20;;
16387;SDS011;8303;53.446;9.988;2023-03-30T06:01:48;18.27;;;12.00;;
16387;SDS011;8303;53.446;9.988;2023-03-30T06:04:16;16.97;;;13.20;;
16387;SDS011;8303;53.446;9.988;2023-03-30T06:06:43;16.57;;;11.97;;
16387;SDS011;8303;53.446;9.988;2023-03-30T06:09:10;14.73;;;11.73;;
16387;SDS011;8303;53.446;9.988;2023-03-30T06:11:38;16.63;;;10.90;;
16387;SDS011;8303;53.446;9.988;2023-03-30T06:14:05;15.67;;;10.47;;
16387;SDS011;8303;53.446;9.988;2023-03-30T06:16:33;14.33;;;10.63;;
16387;SDS011;8303;53.446;9.988;2023-03-30T06:19:01;17.60;;;10.83;;
16387;SDS011;8303;53.446;9.988;2023-03-30T06:21:28;18.00;;;10.17;;
16387;SDS011;8303;53.446;9.988;2023-03-30T06:23:54;14.10;;;10.00;;
16387;SDS011;8303;53.446;9.988;2023-03-30T06:26:21;18.47;;;10.37;;
16387;SDS011;8303;53.446;9.988;2023-03-30T06:28:50;13.53;;;10.13;;
16387;SDS011;8303;53.446;9.988;2023-03-30T06:31:17;16.00;;;10.37;;
16387;SDS011;8303;53.446;9.988;2023-03-30T06:33:44;17.40;;;10.93;;
16387;SDS011;8303;53.446;9.988;2023-03-30T06:36:12;17.20;;;11.10;;
16387;SDS011;8303;53.446;9.988;2023-03-30T06:38:39;16.27;;;10.60;;
16387;SDS011;8303;53.446;9.988;2023-03-30T06:41:07;14.13;;;10.43;;
16387;SDS011;8303;53.446;9.988;2023-03-30T06:43:35;15.73;;;11.63;;
16387;SDS011;8303;53.446;9.988;2023-03-30T06:46:05;18.87;;;11.37;;
16387;SDS011;8303;53.446;9.988;2023-03-30T06:48:32;21.87;;;10.70;;
16387;SDS011;8303;53.446;9.988;2023-03-30T06:50:59;14.73;;;11.00;;
16387;SDS011;8303;53.446;9.988;2023-03-30T06:53:27;15.10;;;10.10;;
16387;SDS011;8303;53.446;9.988;2023-03-30T06:55:55;19.23;;;10.90;;
16387;SDS011;8303;53.446;9.988;2023-03-30T06:58:23;16.50;;;10.77;;
16387;SDS011;8303;53.446;9.988;2023-03-30T07:00:52;15.43;;;9.83;;
16387;SDS011;8303;53.446;9.988;2023-03-30T07:03:20;18.50;;;9.80;;
16387;SDS011;8303;53.446;9.988;2023-03-30T07:05:48;16.23;;;10.17;;
16387;SDS011;8303;53.446;9.988;2023-03-30T07:08:17;17.00;;;9.70;;
16387;SDS011;8303;53.446;9.988;2023-03-30T07:10:45;18.17;;;11.00;;
16387;SDS011;8303;53.446;9.988;2023-03-30T07:13:12;13.57;;;9.47;;
16387;SDS011;8303;53.446;9.988;2023-03-30T07:15:40;14.40;;;9.80;;
16387;SDS011;8303;53.446;9.988;2023-03-30T07:18:07;15.30;;;9.53;;
16387;SDS011;8303;53.446;9.988;2023-03-30T07:20:36;15.67;;;9.13;;
16387;SDS011;8303;53.446;9.988;2023-03-30T07:23:02;15.63;;;9.87;;
16387;SDS011;8303;53.446;9.988;2023-03-30T07:25:30;11.23;;;8.83;;
16387;SDS011;8303;53.446;9.988;2023-03-30T07:27:57;13.07;;;9.30;;
16387;SDS011;8303;53.446;9.988;2023-03-30T07:30:24;12.43;;;8.90;;
16387;SDS011;8303;53.446;9.988;2023-03-30T07:32:51;12.23;;;8.70;;
16387;SDS011;8303;53.446;9.988;2023-03-30T07:35:18;12.47;;;8.43;;
16387;SDS011;8303;53.446;9.988;2023-03-30T07:37:46;11.63;;;8.47;;
16387;SDS011;8303;53.446;9.988;2023-03-30T07:40:13;12.80;;;8.73;;
16387;SDS011;8303;53.446;9.988;2023-03-30T07:42:41;11.03;;;8.07;;
16387;SDS011;8303;53.446;9.988;2023-03-30T07:45:09;12.43;;;8.47;;
16387;SDS011;8303;53.446;9.988;2023-03-30T07:47:36;11.23;;;8.60;;
16387;SDS011;8303;53.446;9.988;2023-03-30T07:50:03;17.90;;;8.13;;
16387;SDS011;8303;53.446;9.988;2023-03-30T07:52:31;11.97;;;7.60;;
16387;SDS011;8303;53.446;9.988;2023-03-30T07:54:59;12.00;;;7.70;;
16387;SDS011;8303;53.446;9.988;2023-03-30T07:57:26;11.87;;;7.70;;
16387;SDS011;8303;53.446;9.988;2023-03-30T07:59:53;12.43;;;7.73;;
16387;SDS011;8303;53.446;9.988;2023-03-30T08:02:20;9.20;;;7.17;;
16387;SDS011;8303;53.446;9.988;2023-03-30T08:04:47;11.93;;;7.30;;
16387;SDS011;8303;53.446;9.988;2023-03-30T08:07:14;8.37;;;6.83;;
16387;SDS011;8303;53.446;9.988;2023-03-30T08:09:41;8.67;;;6.47;;
16387;SDS011;8303;53.446;9.988;2023-03-30T08:12:11;12.53;;;7.33;;
16387;SDS011;8303;53.446;9.988;2023-03-30T08:14:38;11.30;;;6.90;;
16387;SDS011;8303;53.446;9.988;2023-03-30T08:17:05;8.70;;;7.80;;
16387;SDS011;8303;53.446;9.988;2023-03-30T08:19:32;14.03;;;6.97;;
16387;SDS011;8303;53.446;9.988;2023-03-30T08:21:58;9.33;;;8.40;;
16387;SDS011;8303;53.446;9.988;2023-03-30T08:24:26;8.53;;;7.30;;
16387;SDS011;8303;53.446;9.988;2023-03-30T08:26:53;12.23;;;7.43;;
16387;SDS011;8303;53.446;9.988;2023-03-30T08:29:21;9.23;;;7.17;;
16387;SDS011;8303;53.446;9.988;2023-03-30T08:31:49;8.10;;;6.60;;
16387;SDS011;8303;53.446;9.988;2023-03-30T08:34:16;8.90;;;7.20;;
16387;SDS011;8303;53.446;9.988;2023-03-30T08:36:43;10.40;;;8.13;;
16387;SDS011;8303;53.446;9.988;2023-03-30T08:39:10;12.00;;;7.40;;
16387;SDS011;8303;53.446;9.988;2023-03-30T08:41:44;7.20;;;6.20;;
16387;SDS011;8303;53.446;9.988;2023-03-30T08:44:26;8.90;;;7.00;;
16387;SDS011;8303;53.446;9.988;2023-03-30T08:46:59;11.70;;;7.13;;
16387;SDS011;8303;53.446;9.988;2023-03-30T08:49:27;7.80;;;6.13;;
16387;SDS011;8303;53.446;9.988;2023-03-30T08:51:57;8.50;;;7.17;;
16387;SDS011;8303;53.446;9.988;2023-03-30T08:54:26;10.07;;;6.87;;
16387;SDS011;8303;53.446;9.988;2023-03-30T08:56:57;8.97;;;6.90;;
16387;SDS011;8303;53.446;9.988;2023-03-30T08:59:34;9.83;;;7.03;;
16387;SDS011;8303;53.446;9.988;2023-03-30T09:02:11;8.13;;;6.27;;
16387;SDS011;8303;53.446;9.988;2023-03-30T09:04:45;7.93;;;7.13;;
16387;SDS011;8303;53.446;9.988;2023-03-30T09:07:22;12.27;;;11.17;;
16387;SDS011;8303;53.446;9.988;2023-03-30T09:09:51;7.93;;;7.00;;
16387;SDS011;8303;53.446;9.988;2023-03-30T09:12:21;12.43;;;7.37;;
16387;SDS011;8303;53.446;9.988;2023-03-30T09:15:00;7.93;;;6.80;;
16387;SDS011;8303;53.446;9.988;2023-03-30T09:17:31;9.90;;;6.70;;
16387;SDS011;8303;53.446;9.988;2023-03-30T09:20:04;7.97;;;7.17;;
16387;SDS011;8303;53.446;9.988;2023-03-30T09:22:36;10.03;;;9.10;;
16387;SDS011;8303;53.446;9.988;2023-03-30T09:25:11;10.33;;;7.50;;
16387;SDS011;8303;53.446;9.988;2023-03-30T09:27:44;24.77;;;22.67;;
16387;SDS011;8303;53.446;9.988;2023-03-30T09:30:21;8.20;;;7.50;;
16387;SDS011;8303;53.446;9.988;2023-03-30T09:32:57;10.53;;;7.47;;
16387;SDS011;8303;53.446;9.988;2023-03-30T09:35:27;9.37;;;8.13;;
16387;SDS011;8303;53.446;9.988;2023-03-30T09:38:00;9.37;;;8.57;;
16387;SDS011;8303;53.446;9.988;2023-03-30T09:40:33;30.07;;;27.57;;
16387;SDS011;8303;53.446;9.988;2023-03-30T09:43:11;11.13;;;10.03;;
16387;SDS011;8303;53.446;9.988;2023-03-30T09:45:45;12.83;;;11.73;;
16387;SDS011;8303;53.446;9.988;2023-03-30T09:48:12;9.47;;;8.50;;
16387;SDS011;8303;53.446;9.988;2023-03-30T09:50:42;18.50;;;17.10;;
16387;SDS011;8303;53.446;9.988;2023-03-30T09:53:17;9.50;;;8.50;;
16387;SDS011;8303;53.446;9.988;2023-03-30T09:55:58;10.63;;;7.17;;
16387;SDS011;8303;53.446;9.988;2023-03-30T09:58:28;18.17;;;16.70;;
16387;SDS011;8303;53.446;9.988;2023-03-30T10:01:02;9.03;;;7.70;;
16387;SDS011;8303;53.446;9.988;2023-03-30T10:03:31;9.93;;;6.83;;
16387;SDS011;8303;53.446;9.988;2023-03-30T10:05:59;6.60;;;5.90;;
16387;SDS011;8303;53.446;9.988;2023-03-30T10:08:28;7.90;;;6.57;;
16387;SDS011;8303;53.446;9.988;2023-03-30T10:10:55;14.43;;;7.00;;
16387;SDS011;8303;53.446;9.988;2023-03-30T10:13:26;7.30;;;6.60;;
16387;SDS011;8303;53.446;9.988;2023-03-30T10:15:56;11.17;;;6.43;;
16387;SDS011;8303;53.446;9.988;2023-03-30T10:18:33;12.30;;;6.60;;
16387;SDS011;8303;53.446;9.988;2023-03-30T10:21:05;8.30;;;7.43;;
16387;SDS011;8303;53.446;9.988;2023-03-30T10:23:42;9.60;;;6.90;;
16387;SDS011;8303;53.446;9.988;2023-03-30T10:26:12;11.07;;;10.03;;
16387;SDS011;8303;53.446;9.988;2023-03-30T10:28:52;55.50;;;51.73;;
16387;SDS011;8303;53.446;9.988;2023-03-30T10:31:22;11.13;;;8.33;;
16387;SDS011;8303;53.446;9.988;2023-03-30T10:33:51;18.77;;;17.53;;
16387;SDS011;8303;53.446;9.988;2023-03-30T10:36:21;12.40;;;8.77;;
16387;SDS011;8303;53.446;9.988;2023-03-30T10:38:53;10.40;;;9.60;;
16387;SDS011;8303;53.446;9.988;2023-03-30T10:41:20;12.03;;;11.13;;
16387;SDS011;8303;53.446;9.988;2023-03-30T10:43:48;14.10;;;12.80;;
16387;SDS011;8303;53.446;9.988;2023-03-30T10:46:17;21.00;;;19.52;;
16387;SDS011;8303;53.446;9.988;2023-03-30T10:48:54;49.90;;;46.57;;
16387;SDS011;8303;53.446;9.988;2023-03-30T10:51:33;14.75;;;13.77;;
16387;SDS011;8303;53.446;9.988;2023-03-30T10:54:07;15.70;;;14.33;;
16387;SDS011;8303;53.446;9.988;2023-03-30T10:56:42;37.37;;;34.73;;
16387;SDS011;8303;53.446;9.988;2023-03-30T10:59:15;30.73;;;28.38;;
16387;SDS011;8303;53.446;9.988;2023-03-30T11:01:55;29.55;;;27.55;;
16387;SDS011;8303;53.446;9.988;2023-03-30T11:04:45;25.42;;;23.80;;
16387;SDS011;8303;53.446;9.988;2023-03-30T11:07:16;30.30;;;28.55;;
16387;SDS011;8303;53.446;9.988;2023-03-30T11:09:52;24.25;;;22.70;;
16387;SDS011;8303;53.446;9.988;2023-03-30T11:12:22;27.08;;;25.20;;
16387;SDS011;8303;53.446;9.988;2023-03-30T11:14:55;26.75;;;24.98;;
16387;SDS011;8303;53.446;9.988;2023-03-30T11:17:28;46.65;;;43.97;;
16387;SDS011;8303;53.446;9.988;2023-03-30T11:20:15;47.70;;;44.57;;
16387;SDS011;8303;53.446;9.988;2023-03-30T11:22:47;43.50;;;40.67;;
16387;SDS011;8303;53.446;9.988;2023-03-30T11:25:18;57.23;;;53.87;;
16387;SDS011;8303;53.446;9.988;2023-03-30T11:27:50;39.60;;;36.85;;
16387;SDS011;8303;53.446;9.988;2023-03-30T11:30:21;31.40;;;29.37;;
16387;SDS011;8303;53.446;9.988;2023-03-30T11:32:51;59.20;;;55.60;;
16387;SDS011;8303;53.446;9.988;2023-03-30T11:35:25;30.90;;;28.47;;
16387;SDS011;8303;53.446;9.988;2023-03-30T11:37:59;38.03;;;35.73;;
16387;SDS011;8303;53.446;9.988;2023-03-30T11:40:34;30.90;;;28.60;;
16387;SDS011;8303;53.446;9.988;2023-03-30T11:43:07;41.03;;;38.17;;
16387;SDS011;8303;53.446;9.988;2023-03-30T11:45:47;34.00;;;31.77;;
16387;SDS011;8303;53.446;9.988;2023-03-30T11:48:44;35.77;;;33.63;;
16387;SDS011;8303;53.446;9.988;2023-03-30T11:51:32;33.07;;;31.03;;
16387;SDS011;8303;53.446;9.988;2023-03-30T11:54:27;32.70;;;30.07;;
16387;SDS011;8303;53.446;9.988;2023-03-30T11:57:16;55.73;;;52.40;;
16387;SDS011;8303;53.446;9.988;2023-03-30T11:59:53;49.60;;;46.80;;
16387;SDS011;8303;53.446;9.988;2023-03-30T12:02:34;75.05;;;70.70;;
16387;SDS011;8303;53.446;9.988;2023-03-30T12:05:10;58.83;;;55.43;;
16387;SDS011;8303;53.446;9.988;2023-03-30T12:07:48;450.73;;;413.67;;
16387;SDS011;8303;53.446;9.988;2023-03-30T12:10:21;57.43;;;54.07;;
16387;SDS011;8303;53.446;9.988;2023-03-30T12:12:53;105.40;;;99.60;;
16387;SDS011;8303;53.446;9.988;2023-03-30T12:18:13;209.50;;;195.87;;
16387;SDS011;8303;53.446;9.988;2023-03-30T12:20:49;63.73;;;60.27;;
16387;SDS011;8303;53.446;9.988;2023-03-30T12:23:25;247.43;;;232.83;;
16387;SDS011;8303;53.446;9.988;2023-03-30T12:26:09;54.97;;;51.53;;
16387;SDS011;8303;53.446;9.988;2023-03-30T12:28:47;158.67;;;147.47;;
16387;SDS011;8303;53.446;9.988;2023-03-30T12:31:23;59.10;;;55.07;;
16387;SDS011;8303;53.446;9.988;2023-03-30T12:34:14;69.27;;;64.97;;
16387;SDS011;8303;53.446;9.988;2023-03-30T12:36:41;127.80;;;119.30;;
16387;SDS011;8303;53.446;9.988;2023-03-30T12:39:15;271.63;;;252.33;;
16387;SDS011;8303;53.446;9.988;2023-03-30T12:41:46;205.70;;;191.87;;
16387;SDS011;8303;53.446;9.988;2023-03-30T12:44:18;120.33;;;113.07;;
16387;SDS011;8303;53.446;9.988;2023-03-30T12:46:58;51.17;;;47.80;;
16387;SDS011;8303;53.446;9.988;2023-03-30T12:49:41;37.33;;;34.93;;
16387;SDS011;8303;53.446;9.988;2023-03-30T12:52:22;239.83;;;224.87;;
16387;SDS011;8303;53.446;9.988;2023-03-30T12:55:05;154.97;;;144.53;;
16387;SDS011;8303;53.446;9.988;2023-03-30T12:57:44;171.60;;;160.83;;
16387;SDS011;8303;53.446;9.988;2023-03-30T13:00:35;58.20;;;54.30;;
16387;SDS011;8303;53.446;9.988;2023-03-30T13:03:24;41.70;;;38.57;;
16387;SDS011;8303;53.446;9.988;2023-03-30T13:06:00;80.80;;;75.23;;
16387;SDS011;8303;53.446;9.988;2023-03-30T13:08:30;41.47;;;38.63;;
16387;SDS011;8303;53.446;9.988;2023-03-30T13:11:06;55.27;;;51.73;;
16387;SDS011;8303;53.446;9.988;2023-03-30T13:13:47;37.97;;;34.97;;
16387;SDS011;8303;53.446;9.988;2023-03-30T13:19:39;48.50;;;44.97;;
16387;SDS011;8303;53.446;9.988;2023-03-30T13:22:29;36.93;;;34.17;;
16387;SDS011;8303;53.446;9.988;2023-03-30T13:24:58;34.50;;;32.23;;
16387;SDS011;8303;53.446;9.988;2023-03-30T13:27:29;44.03;;;40.80;;
16387;SDS011;8303;53.446;9.988;2023-03-30T13:29:58;229.30;;;213.03;;
16387;SDS011;8303;53.446;9.988;2023-03-30T13:35:45;40.73;;;37.93;;
16387;SDS011;8303;53.446;9.988;2023-03-30T13:41:20;68.33;;;64.17;;
16387;SDS011;8303;53.446;9.988;2023-03-30T13:43:59;88.33;;;82.60;;
16387;SDS011;8303;53.446;9.988;2023-03-30T13:46:37;52.03;;;48.23;;
16387;SDS011;8303;53.446;9.988;2023-03-30T13:49:14;42.03;;;39.10;;
16387;SDS011;8303;53.446;9.988;2023-03-30T13:51:50;96.40;;;90.87;;
16387;SDS011;8303;53.446;9.988;2023-03-30T13:54:19;102.53;;;96.77;;
16387;SDS011;8303;53.446;9.988;2023-03-30T13:56:50;112.73;;;106.63;;
16387;SDS011;8303;53.446;9.988;2023-03-30T13:59:25;119.43;;;113.13;;
16387;SDS011;8303;53.446;9.988;2023-03-30T14:01:55;124.00;;;117.10;;
16387;SDS011;8303;53.446;9.988;2023-03-30T14:04:26;188.02;;;176.55;;
16387;SDS011;8303;53.446;9.988;2023-03-30T14:06:55;196.38;;;184.80;;
16387;SDS011;8303;53.446;9.988;2023-03-30T14:09:23;112.97;;;106.60;;
16387;SDS011;8303;53.446;9.988;2023-03-30T14:11:52;113.83;;;107.60;;
16387;SDS011;8303;53.446;9.988;2023-03-30T14:14:21;183.27;;;171.93;;
16387;SDS011;8303;53.446;9.988;2023-03-30T14:17:03;122.60;;;115.53;;
16387;SDS011;8303;53.446;9.988;2023-03-30T14:19:41;200.47;;;189.60;;
16387;SDS011;8303;53.446;9.988;2023-03-30T14:22:17;210.00;;;199.10;;
16387;SDS011;8303;53.446;9.988;2023-03-30T14:24:55;354.57;;;332.93;;
16387;SDS011;8303;53.446;9.988;2023-03-30T14:27:23;208.90;;;197.60;;
16387;SDS011;8303;53.446;9.988;2023-03-30T14:29:51;295.80;;;279.27;;
16387;SDS011;8303;53.446;9.988;2023-03-30T14:32:18;192.77;;;182.73;;
16387;SDS011;8303;53.446;9.988;2023-03-30T14:34:47;213.38;;;202.57;;
16387;SDS011;8303;53.446;9.988;2023-03-30T14:37:16;255.55;;;242.48;;
16387;SDS011;8303;53.446;9.988;2023-03-30T14:39:44;266.85;;;253.18;;
16387;SDS011;8303;53.446;9.988;2023-03-30T14:42:14;195.52;;;185.07;;
16387;SDS011;8303;53.446;9.988;2023-03-30T14:44:43;235.43;;;221.95;;
16387;SDS011;8303;53.446;9.988;2023-03-30T14:47:14;189.52;;;179.40;;
16387;SDS011;8303;53.446;9.988;2023-03-30T14:49:43;219.93;;;208.60;;
16387;SDS011;8303;53.446;9.988;2023-03-30T14:52:16;196.48;;;186.05;;
16387;SDS011;8303;53.446;9.988;2023-03-30T14:54:44;195.35;;;185.32;;
16387;SDS011;8303;53.446;9.988;2023-03-30T14:57:15;325.33;;;307.90;;
16387;SDS011;8303;53.446;9.988;2023-03-30T14:59:44;388.45;;;366.70;;
16387;SDS011;8303;53.446;9.988;2023-03-30T15:02:16;282.65;;;268.10;;
16387;SDS011;8303;53.446;9.988;2023-03-30T15:04:45;252.90;;;239.93;;
16387;SDS011;8303;53.446;9.988;2023-03-30T15:07:13;253.73;;;240.33;;
16387;SDS011;8303;53.446;9.988;2023-03-30T15:09:41;258.57;;;244.63;;
16387;SDS011;8303;53.446;9.988;2023-03-30T15:12:11;213.43;;;202.20;;
16387;SDS011;8303;53.446;9.988;2023-03-30T15:14:46;264.23;;;250.73;;
16387;SDS011;8303;53.446;9.988;2023-03-30T15:17:15;395.83;;;373.83;;
16387;SDS011;8303;53.446;9.988;2023-03-30T15:19:47;294.03;;;279.13;;
16387;SDS011;8303;53.446;9.988;2023-03-30T15:22:18;434.97;;;409.10;;
16387;SDS011;8303;53.446;9.988;2023-03-30T15:24:51;311.37;;;295.63;;
16387;SDS011;8303;53.446;9.988;2023-03-30T15:27:20;269.23;;;255.63;;
16387;SDS011;8303;53.446;9.988;2023-03-30T15:29:48;249.67;;;236.70;;
16387;SDS011;8303;53.446;9.988;2023-03-30T15:32:16;306.40;;;289.70;;
16387;SDS011;8303;53.446;9.988;2023-03-30T15:35:01;313.77;;;296.80;;
16387;SDS011;8303;53.446;9.988;2023-03-30T15:37:34;354.85;;;334.13;;
16387;SDS011;8303;53.446;9.988;2023-03-30T15:40:02;267.65;;;253.85;;
16387;SDS011;8303;53.446;9.988;2023-03-30T15:42:50;229.10;;;217.20;;
16387;SDS011;8303;53.446;9.988;2023-03-30T15:45:37;317.98;;;300.80;;
16387;SDS011;8303;53.446;9.988;2023-03-30T15:48:08;382.27;;;360.00;;
16387;SDS011;8303;53.446;9.988;2023-03-30T15:50:36;298.97;;;283.17;;
16387;SDS011;8303;53.446;9.988;2023-03-30T15:53:04;227.23;;;215.70;;
16387;SDS011;8303;53.446;9.988;2023-03-30T15:55:37;260.50;;;246.97;;
16387;SDS011;8303;53.446;9.988;2023-03-30T15:58:10;229.50;;;217.10;;
16387;SDS011;8303;53.446;9.988;2023-03-30T16:00:38;258.10;;;244.87;;
16387;SDS011;8303;53.446;9.988;2023-03-30T16:03:09;265.47;;;250.93;;
16387;SDS011;8303;53.446;9.988;2023-03-30T16:05:38;191.57;;;181.67;;
16387;SDS011;8303;53.446;9.988;2023-03-30T16:08:07;244.63;;;229.60;;
16387;SDS011;8303;53.446;9.988;2023-03-30T16:10:34;99.63;;;93.30;;
16387;SDS011;8303;53.446;9.988;2023-03-30T16:13:02;62.20;;;58.43;;
16387;SDS011;8303;53.446;9.988;2023-03-30T16:15:31;43.70;;;40.80;;
16387;SDS011;8303;53.446;9.988;2023-03-30T16:17:58;240.40;;;226.20;;
16387;SDS011;8303;53.446;9.988;2023-03-30T16:20:27;63.40;;;59.10;;
16387;SDS011;8303;53.446;9.988;2023-03-30T16:22:56;50.07;;;46.83;;
16387;SDS011;8303;53.446;9.988;2023-03-30T16:25:23;82.97;;;78.33;;
16387;SDS011;8303;53.446;9.988;2023-03-30T16:27:52;49.63;;;45.83;;
16387;SDS011;8303;53.446;9.988;2023-03-30T16:30:20;33.73;;;31.33;;
16387;SDS011;8303;53.446;9.988;2023-03-30T16:32:51;36.83;;;34.47;;
16387;SDS011;8303;53.446;9.988;2023-03-30T16:35:17;35.97;;;33.77;;
16387;SDS011;8303;53.446;9.988;2023-03-30T16:37:46;31.30;;;28.90;;
16387;SDS011;8303;53.446;9.988;2023-03-30T16:40:16;38.67;;;36.20;;
16387;SDS011;8303;53.446;9.988;2023-03-30T16:42:50;56.83;;;53.20;;
16387;SDS011;8303;53.446;9.988;2023-03-30T16:45:16;58.57;;;54.27;;
16387;SDS011;8303;53.446;9.988;2023-03-30T16:47:43;74.70;;;70.20;;
16387;SDS011;8303;53.446;9.988;2023-03-30T16:50:14;69.93;;;65.43;;
16387;SDS011;8303;53.446;9.988;2023-03-30T16:52:46;57.30;;;53.00;;
16387;SDS011;8303;53.446;9.988;2023-03-30T16:55:13;42.73;;;39.83;;
16387;SDS011;8303;53.446;9.988;2023-03-30T16:57:40;35.60;;;32.47;;
16387;SDS011;8303;53.446;9.988;2023-03-30T17:02:54;32.70;;;29.90;;
16387;SDS011;8303;53.446;9.988;2023-03-30T17:05:22;30.13;;;27.30;;
16387;SDS011;8303;53.446;9.988;2023-03-30T17:07:53;37.07;;;34.13;;
16387;SDS011;8303;53.446;9.988;2023-03-30T17:10:22;30.37;;;27.53;;
16387;SDS011;8303;53.446;9.988;2023-03-30T17:12:50;29.80;;;27.20;;
16387;SDS011;8303;53.446;9.988;2023-03-30T17:15:17;26.30;;;23.90;;
16387;SDS011;8303;53.446;9.988;2023-03-30T17:17:45;34.23;;;29.43;;
16387;SDS011;8303;53.446;9.988;2023-03-30T17:20:17;30.70;;;28.07;;
16387;SDS011;8303;53.446;9.988;2023-03-30T17:22:46;24.10;;;21.87;;
16387;SDS011;8303;53.446;9.988;2023-03-30T17:25:15;25.23;;;23.07;;
16387;SDS011;8303;53.446;9.988;2023-03-30T17:27:45;26.00;;;23.67;;
16387;SDS011;8303;53.446;9.988;2023-03-30T17:30:15;26.13;;;23.47;;
16387;SDS011;8303;53.446;9.988;2023-03-30T17:32:44;35.30;;;32.63;;
16387;SDS011;8303;53.446;9.988;2023-03-30T17:35:11;25.90;;;23.63;;
16387;SDS011;8303;53.446;9.988;2023-03-30T17:37:39;28.03;;;25.83;;
16387;SDS011;8303;53.446;9.988;2023-03-30T17:40:13;30.07;;;27.53;;
16387;SDS011;8303;53.446;9.988;2023-03-30T17:42:46;65.13;;;60.27;;
16387;SDS011;8303;53.446;9.988;2023-03-30T17:45:14;29.20;;;26.40;;
16387;SDS011;8303;53.446;9.988;2023-03-30T17:47:42;25.87;;;23.57;;
16387;SDS011;8303;53.446;9.988;2023-03-30T17:52:56;24.97;;;22.67;;
16387;SDS011;8303;53.446;9.988;2023-03-30T17:55:26;24.93;;;23.07;;
16387;SDS011;8303;53.446;9.988;2023-03-30T17:57:55;26.43;;;23.73;;
16387;SDS011;8303;53.446;9.988;2023-03-30T18:00:23;23.83;;;21.90;;
16387;SDS011;8303;53.446;9.988;2023-03-30T18:02:52;27.70;;;25.20;;
16387;SDS011;8303;53.446;9.988;2023-03-30T18:05:20;26.07;;;23.80;;
16387;SDS011;8303;53.446;9.988;2023-03-30T18:07:49;28.87;;;25.90;;
16387;SDS011;8303;53.446;9.988;2023-03-30T18:10:21;25.37;;;22.90;;
16387;SDS011;8303;53.446;9.988;2023-03-30T18:12:51;28.80;;;26.07;;
16387;SDS011;8303;53.446;9.988;2023-03-30T18:15:20;28.33;;;25.57;;
16387;SDS011;8303;53.446;9.988;2023-03-30T18:17:50;27.80;;;25.43;;
16387;SDS011;8303;53.446;9.988;2023-03-30T18:20:18;28.37;;;25.93;;
16387;SDS011;8303;53.446;9.988;2023-03-30T18:22:49;29.57;;;27.37;;
16387;SDS011;8303;53.446;9.988;2023-03-30T18:25:17;28.03;;;25.70;;
16387;SDS011;8303;53.446;9.988;2023-03-30T18:27:45;27.83;;;25.40;;
16387;SDS011;8303;53.446;9.988;2023-03-30T18:30:16;28.07;;;25.57;;
16387;SDS011;8303;53.446;9.988;2023-03-30T18:32:45;26.87;;;24.60;;
16387;SDS011;8303;53.446;9.988;2023-03-30T18:35:12;29.47;;;27.17;;
16387;SDS011;8303;53.446;9.988;2023-03-30T18:37:39;29.00;;;26.27;;
16387;SDS011;8303;53.446;9.988;2023-03-30T18:40:10;26.73;;;24.77;;
16387;SDS011;8303;53.446;9.988;2023-03-30T18:42:41;44.33;;;41.33;;
16387;SDS011;8303;53.446;9.988;2023-03-30T18:45:14;26.50;;;24.37;;
16387;SDS011;8303;53.446;9.988;2023-03-30T18:47:43;20.77;;;17.87;;
16387;SDS011;8303;53.446;9.988;2023-03-30T18:50:11;16.60;;;13.27;;
16387;SDS011;8303;53.446;9.988;2023-03-30T18:52:40;13.73;;;12.03;;
16387;SDS011;8303;53.446;9.988;2023-03-30T18:55:07;14.67;;;8.77;;
16387;SDS011;8303;53.446;9.988;2023-03-30T18:57:34;9.03;;;5.87;;
16387;SDS011;8303;53.446;9.988;2023-03-30T19:00:02;10.93;;;5.67;;
16387;SDS011;8303;53.446;9.988;2023-03-30T19:02:34;13.63;;;6.13;;
16387;SDS011;8303;53.446;9.988;2023-03-30T19:05:00;13.53;;;6.10;;
16387;SDS011;8303;53.446;9.988;2023-03-30T19:07:27;12.40;;;6.33;;
16387;SDS011;8303;53.446;9.988;2023-03-30T19:09:54;13.37;;;5.60;;
16387;SDS011;8303;53.446;9.988;2023-03-30T19:12:21;15.77;;;7.43;;
16387;SDS011;8303;53.446;9.988;2023-03-30T19:14:48;14.73;;;6.57;;
16387;SDS011;8303;53.446;9.988;2023-03-30T19:17:15;14.10;;;6.30;;
16387;SDS011;8303;53.446;9.988;2023-03-30T19:19:43;9.33;;;5.67;;
16387;SDS011;8303;53.446;9.988;2023-03-30T19:22:10;15.07;;;6.43;;
16387;SDS011;8303;53.446;9.988;2023-03-30T19:24:37;14.97;;;5.73;;
16387;SDS011;8303;53.446;9.988;2023-03-30T19:27:04;16.00;;;5.23;;
16387;SDS011;8303;53.446;9.988;2023-03-30T19:29:32;14.40;;;6.57;;
16387;SDS011;8303;53.446;9.988;2023-03-30T19:32:00;11.37;;;5.80;;
16387;SDS011;8303;53.446;9.988;2023-03-30T19:34:27;13.23;;;7.03;;
16387;SDS011;8303;53.446;9.988;2023-03-30T19:36:55;22.83;;;13.27;;
16387;SDS011;8303;53.446;9.988;2023-03-30T19:39:22;17.60;;;6.63;;
16387;SDS011;8303;53.446;9.988;2023-03-30T19:41:49;18.83;;;7.73;;
16387;SDS011;8303;53.446;9.988;2023-03-30T19:44:16;15.20;;;6.30;;
16387;SDS011;8303;53.446;9.988;2023-03-30T19:46:43;17.30;;;6.40;;
16387;SDS011;8303;53.446;9.988;2023-03-30T19:49:10;17.57;;;6.33;;
16387;SDS011;8303;53.446;9.988;2023-03-30T19:51:37;21.97;;;6.47;;
16387;SDS011;8303;53.446;9.988;2023-03-30T19:54:05;14.47;;;6.30;;
16387;SDS011;8303;53.446;9.988;2023-03-30T19:56:32;13.30;;;7.23;;
16387;SDS011;8303;53.446;9.988;2023-03-30T19:58:59;19.30;;;7.03;;
16387;SDS011;8303;53.446;9.988;2023-03-30T20:01:25;19.50;;;7.33;;
16387;SDS011;8303;53.446;9.988;2023-03-30T20:03:52;16.73;;;6.87;;